sensor_id;sensor_type;location;lat;lon;timestamp;temperature;humidity
23669;DHT22;12011;47.422;15.018;2023-03-14T00:01:12;1.20;99.90
23669;DHT22;12011;47.422;15.018;2023-03-14T00:03:45;0.70;99.90
23669;DHT22;12011;47.422;15.018;2023-03-14T00:06:26;0.60;99.90
23669;DHT22;12011;47.422;15.018;2023-03-14T00:08:58;1.90;99.90
23669;DHT22;12011;47.422;15.018;2023-03-14T00:11:38;0.50;99.90
23669;DHT22;12011;47.422;15.018;2023-03-14T00:14:15;1.20;99.90
23669;DHT22;12011;47.422;15.018;2023-03-14T00:16:53;1.50;99.90
23669;DHT22;12011;47.422;15.018;2023-03-14T00:19:28;0.80;99.90
23669;DHT22;12011;47.422;15.018;2023-03-14T00:22:03;0.70;99.90
23669;DHT22;12011;47.422;15.018;2023-03-14T00:24:41;0.50;99.90
23669;DHT22;12011;47.422;15.018;2023-03-14T00:27:14;1.30;99.90
23669;DHT22;12011;47.422;15.018;2023-03-14T00:29:44;1.50;99.90
23669;DHT22;12011;47.422;15.018;2023-03-14T00:32:14;1.80;99.90
23669;DHT22;12011;47.422;15.018;2023-03-14T00:34:44;1.80;99.90
23669;DHT22;12011;47.422;15.018;2023-03-14T00:37:18;1.70;99.90
23669;DHT22;12011;47.422;15.018;2023-03-14T00:39:50;0.70;99.90
23669;DHT22;12011;47.422;15.018;2023-03-14T00:42:21;0.20;99.90
23669;DHT22;12011;47.422;15.018;2023-03-14T00:44:53;0.50;99.90
23669;DHT22;12011;47.422;15.018;2023-03-14T00:47:24;2.70;99.90
23669;DHT22;12011;47.422;15.018;2023-03-14T00:49:55;2.80;99.90
23669;DHT22;12011;47.422;15.018;2023-03-14T00:52:27;0.60;99.90
23669;DHT22;12011;47.422;15.018;2023-03-14T00:54:59;1.60;99.90
23669;DHT22;12011;47.422;15.018;2023-03-14T00:57:33;1.50;99.90
23669;DHT22;12011;47.422;15.018;2023-03-14T01:00:09;0.50;99.90
23669;DHT22;12011;47.422;15.018;2023-03-14T01:02:41;0.30;99.90
23669;DHT22;12011;47.422;15.018;2023-03-14T01:05:11;0.40;99.90
23669;DHT22;12011;47.422;15.018;2023-03-14T01:07:45;2.10;99.90
23669;DHT22;12011;47.422;15.018;2023-03-14T01:10:18;0.70;99.90
23669;DHT22;12011;47.422;15.018;2023-03-14T01:12:51;0.40;99.90
23669;DHT22;12011;47.422;15.018;2023-03-14T01:15:22;1.10;99.90
23669;DHT22;12011;47.422;15.018;2023-03-14T01:17:57;2.50;99.90
23669;DHT22;12011;47.422;15.018;2023-03-14T01:20:29;0.90;99.90
23669;DHT22;12011;47.422;15.018;2023-03-14T01:23:02;0.90;99.90
23669;DHT22;12011;47.422;15.018;2023-03-14T01:25:34;0.80;99.90
23669;DHT22;12011;47.422;15.018;2023-03-14T01:28:18;1.30;99.90
23669;DHT22;12011;47.422;15.018;2023-03-14T01:30:50;1.20;99.90
23669;DHT22;12011;47.422;15.018;2023-03-14T01:33:33;1.10;99.90
23669;DHT22;12011;47.422;15.018;2023-03-14T01:36:08;0.20;99.90
23669;DHT22;12011;47.422;15.018;2023-03-14T01:38:45;0.20;99.90
23669;DHT22;12011;47.422;15.018;2023-03-14T01:41:19;1.40;99.90
23669;DHT22;12011;47.422;15.018;2023-03-14T01:44:00;1.80;99.90
23669;DHT22;12011;47.422;15.018;2023-03-14T01:46:39;-0.10;99.90
23669;DHT22;12011;47.422;15.018;2023-03-14T01:49:22;0.00;99.90
23669;DHT22;12011;47.422;15.018;2023-03-14T01:52:11;0.40;99.90
23669;DHT22;12011;47.422;15.018;2023-03-14T01:54:49;0.90;99.90
23669;DHT22;12011;47.422;15.018;2023-03-14T01:57:28;2.60;99.90
23669;DHT22;12011;47.422;15.018;2023-03-14T02:00:09;1.00;99.90
23669;DHT22;12011;47.422;15.018;2023-03-14T02:02:57;0.40;99.90
23669;DHT22;12011;47.422;15.018;2023-03-14T02:05:37;0.40;99.90
23669;DHT22;12011;47.422;15.018;2023-03-14T02:08:19;0.40;99.90
23669;DHT22;12011;47.422;15.018;2023-03-14T02:11:06;0.20;99.90
23669;DHT22;12011;47.422;15.018;2023-03-14T02:13:58;1.20;99.90
23669;DHT22;12011;47.422;15.018;2023-03-14T02:16:55;0.70;99.90
23669;DHT22;12011;47.422;15.018;2023-03-14T02:20:07;0.70;99.90
23669;DHT22;12011;47.422;15.018;2023-03-14T02:22:47;-0.50;99.90
23669;DHT22;12011;47.422;15.018;2023-03-14T02:25:28;1.20;99.90
23669;DHT22;12011;47.422;15.018;2023-03-14T02:28:09;1.60;99.90
23669;DHT22;12011;47.422;15.018;2023-03-14T02:30:46;0.80;99.90
23669;DHT22;12011;47.422;15.018;2023-03-14T02:33:23;2.10;99.90
23669;DHT22;12011;47.422;15.018;2023-03-14T02:35:59;1.00;99.90
23669;DHT22;12011;47.422;15.018;2023-03-14T02:38:43;-1.30;99.90
23669;DHT22;12011;47.422;15.018;2023-03-14T02:41:16;2.60;99.90
23669;DHT22;12011;47.422;15.018;2023-03-14T02:44:01;1.00;99.90
23669;DHT22;12011;47.422;15.018;2023-03-14T02:46:34;0.50;99.90
23669;DHT22;12011;47.422;15.018;2023-03-14T02:49:10;2.10;99.90
23669;DHT22;12011;47.422;15.018;2023-03-14T02:51:43;0.40;99.90
23669;DHT22;12011;47.422;15.018;2023-03-14T02:54:20;1.00;99.90
23669;DHT22;12011;47.422;15.018;2023-03-14T02:56:51;0.20;99.90
23669;DHT22;12011;47.422;15.018;2023-03-14T02:59:24;2.10;99.90
23669;DHT22;12011;47.422;15.018;2023-03-14T03:02:00;2.60;99.90
23669;DHT22;12011;47.422;15.018;2023-03-14T03:04:32;0.80;99.90
23669;DHT22;12011;47.422;15.018;2023-03-14T03:07:02;0.50;99.90
23669;DHT22;12011;47.422;15.018;2023-03-14T03:09:36;1.20;99.90
23669;DHT22;12011;47.422;15.018;2023-03-14T03:12:07;2.40;99.90
23669;DHT22;12011;47.422;15.018;2023-03-14T03:14:41;0.90;99.90
23669;DHT22;12011;47.422;15.018;2023-03-14T03:17:15;2.30;99.90
23669;DHT22;12011;47.422;15.018;2023-03-14T03:19:49;1.20;99.90
23669;DHT22;12011;47.422;15.018;2023-03-14T03:22:25;0.80;99.90
23669;DHT22;12011;47.422;15.018;2023-03-14T03:24:56;0.90;99.90
23669;DHT22;12011;47.422;15.018;2023-03-14T03:27:26;1.60;99.90
23669;DHT22;12011;47.422;15.018;2023-03-14T03:30:05;2.00;99.90
23669;DHT22;12011;47.422;15.018;2023-03-14T03:32:36;0.90;99.90
23669;DHT22;12011;47.422;15.018;2023-03-14T03:35:11;0.80;99.90
23669;DHT22;12011;47.422;15.018;2023-03-14T03:37:44;2.20;99.90
23669;DHT22;12011;47.422;15.018;2023-03-14T03:40:29;1.60;99.90
23669;DHT22;12011;47.422;15.018;2023-03-14T03:42:59;0.80;99.90
23669;DHT22;12011;47.422;15.018;2023-03-14T03:45:33;1.90;99.90
23669;DHT22;12011;47.422;15.018;2023-03-14T03:48:05;2.80;99.90
23669;DHT22;12011;47.422;15.018;2023-03-14T03:50:44;1.60;99.90
23669;DHT22;12011;47.422;15.018;2023-03-14T03:53:20;1.30;99.90
23669;DHT22;12011;47.422;15.018;2023-03-14T03:55:51;0.50;99.90
23669;DHT22;12011;47.422;15.018;2023-03-14T03:58:24;2.50;99.90
23669;DHT22;12011;47.422;15.018;2023-03-14T04:00:59;2.60;99.90
23669;DHT22;12011;47.422;15.018;2023-03-14T04:03:32;2.00;99.90
23669;DHT22;12011;47.422;15.018;2023-03-14T04:06:07;1.30;99.90
23669;DHT22;12011;47.422;15.018;2023-03-14T04:08:43;0.90;99.90
23669;DHT22;12011;47.422;15.018;2023-03-14T04:11:30;2.90;99.90
23669;DHT22;12011;47.422;15.018;2023-03-14T04:14:12;1.90;99.90
23669;DHT22;12011;47.422;15.018;2023-03-14T04:16:51;0.20;99.90
23669;DHT22;12011;47.422;15.018;2023-03-14T04:19:26;1.70;99.90
23669;DHT22;12011;47.422;15.018;2023-03-14T04:21:59;1.90;99.90
23669;DHT22;12011;47.422;15.018;2023-03-14T04:24:34;1.40;99.90
23669;DHT22;12011;47.422;15.018;2023-03-14T04:27:08;0.80;99.90
23669;DHT22;12011;47.422;15.018;2023-03-14T04:29:37;1.80;99.90
23669;DHT22;12011;47.422;15.018;2023-03-14T04:32:14;1.30;99.90
23669;DHT22;12011;47.422;15.018;2023-03-14T04:34:48;1.50;99.90
23669;DHT22;12011;47.422;15.018;2023-03-14T04:37:24;1.10;99.90
23669;DHT22;12011;47.422;15.018;2023-03-14T04:39:57;2.00;99.90
23669;DHT22;12011;47.422;15.018;2023-03-14T04:42:33;1.10;99.90
23669;DHT22;12011;47.422;15.018;2023-03-14T04:45:06;1.10;99.90
23669;DHT22;12011;47.422;15.018;2023-03-14T04:47:41;1.30;99.90
23669;DHT22;12011;47.422;15.018;2023-03-14T04:50:17;2.10;99.90
23669;DHT22;12011;47.422;15.018;2023-03-14T04:52:48;2.50;99.90
23669;DHT22;12011;47.422;15.018;2023-03-14T04:55:22;2.90;99.90
23669;DHT22;12011;47.422;15.018;2023-03-14T04:58:03;0.50;99.90
23669;DHT22;12011;47.422;15.018;2023-03-14T05:00:35;1.30;99.90
23669;DHT22;12011;47.422;15.018;2023-03-14T05:03:38;1.90;99.90
23669;DHT22;12011;47.422;15.018;2023-03-14T05:06:23;2.50;99.90
23669;DHT22;12011;47.422;15.018;2023-03-14T05:09:05;1.70;99.90
23669;DHT22;12011;47.422;15.018;2023-03-14T05:12:07;1.80;99.90
23669;DHT22;12011;47.422;15.018;2023-03-14T05:15:29;0.90;99.90
23669;DHT22;12011;47.422;15.018;2023-03-14T05:18:19;1.50;99.90
23669;DHT22;12011;47.422;15.018;2023-03-14T05:21:12;1.10;99.90
23669;DHT22;12011;47.422;15.018;2023-03-14T05:23:43;2.90;99.90
23669;DHT22;12011;47.422;15.018;2023-03-14T05:26:35;1.20;99.90
23669;DHT22;12011;47.422;15.018;2023-03-14T05:29:39;3.20;99.90
23669;DHT22;12011;47.422;15.018;2023-03-14T05:32:49;2.20;99.90
23669;DHT22;12011;47.422;15.018;2023-03-14T05:35:42;1.30;99.90
23669;DHT22;12011;47.422;15.018;2023-03-14T05:38:34;3.20;99.90
23669;DHT22;12011;47.422;15.018;2023-03-14T05:41:17;0.40;99.90
23669;DHT22;12011;47.422;15.018;2023-03-14T05:44:17;1.90;99.90
23669;DHT22;12011;47.422;15.018;2023-03-14T05:47:28;2.40;99.90
23669;DHT22;12011;47.422;15.018;2023-03-14T05:50:24;-0.50;99.90
23669;DHT22;12011;47.422;15.018;2023-03-14T05:53:13;2.50;99.90
23669;DHT22;12011;47.422;15.018;2023-03-14T05:55:53;2.40;99.90
23669;DHT22;12011;47.422;15.018;2023-03-14T05:58:57;2.40;99.90
23669;DHT22;12011;47.422;15.018;2023-03-14T06:01:36;2.30;99.90
23669;DHT22;12011;47.422;15.018;2023-03-14T06:04:16;3.10;99.90
23669;DHT22;12011;47.422;15.018;2023-03-14T06:06:53;3.10;99.90
23669;DHT22;12011;47.422;15.018;2023-03-14T06:09:23;3.70;99.90
23669;DHT22;12011;47.422;15.018;2023-03-14T06:12:11;3.10;99.90
23669;DHT22;12011;47.422;15.018;2023-03-14T06:14:45;2.60;99.90
23669;DHT22;12011;47.422;15.018;2023-03-14T06:17:17;2.90;99.90
23669;DHT22;12011;47.422;15.018;2023-03-14T06:19:53;3.30;99.90
23669;DHT22;12011;47.422;15.018;2023-03-14T06:22:23;3.20;99.90
23669;DHT22;12011;47.422;15.018;2023-03-14T06:24:53;2.90;99.90
23669;DHT22;12011;47.422;15.018;2023-03-14T06:27:27;3.30;99.90
23669;DHT22;12011;47.422;15.018;2023-03-14T06:29:58;3.30;99.90
23669;DHT22;12011;47.422;15.018;2023-03-14T06:32:29;2.90;99.90
23669;DHT22;12011;47.422;15.018;2023-03-14T06:35:04;3.30;99.90
23669;DHT22;12011;47.422;15.018;2023-03-14T06:37:37;3.40;99.90
23669;DHT22;12011;47.422;15.018;2023-03-14T06:40:09;3.40;99.90
23669;DHT22;12011;47.422;15.018;2023-03-14T06:42:56;3.50;99.90
23669;DHT22;12011;47.422;15.018;2023-03-14T06:45:28;3.60;99.90
23669;DHT22;12011;47.422;15.018;2023-03-14T06:47:59;3.20;99.90
23669;DHT22;12011;47.422;15.018;2023-03-14T06:50:38;3.30;99.90
23669;DHT22;12011;47.422;15.018;2023-03-14T06:53:08;3.60;99.90
23669;DHT22;12011;47.422;15.018;2023-03-14T06:55:41;4.70;99.90
23669;DHT22;12011;47.422;15.018;2023-03-14T06:58:15;3.40;99.90
23669;DHT22;12011;47.422;15.018;2023-03-14T07:00:45;4.80;99.90
23669;DHT22;12011;47.422;15.018;2023-03-14T07:03:21;3.80;99.90
23669;DHT22;12011;47.422;15.018;2023-03-14T07:05:53;4.30;99.90
23669;DHT22;12011;47.422;15.018;2023-03-14T07:08:23;4.50;99.90
23669;DHT22;12011;47.422;15.018;2023-03-14T07:10:53;5.80;99.90
23669;DHT22;12011;47.422;15.018;2023-03-14T07:13:28;4.70;99.90
23669;DHT22;12011;47.422;15.018;2023-03-14T07:16:02;4.90;99.90
23669;DHT22;12011;47.422;15.018;2023-03-14T07:18:33;5.50;99.90
23669;DHT22;12011;47.422;15.018;2023-03-14T07:21:05;5.60;99.90
23669;DHT22;12011;47.422;15.018;2023-03-14T07:23:37;5.80;99.90
23669;DHT22;12011;47.422;15.018;2023-03-14T07:26:07;6.30;99.90
23669;DHT22;12011;47.422;15.018;2023-03-14T07:28:45;5.80;99.90
23669;DHT22;12011;47.422;15.018;2023-03-14T07:31:18;6.10;99.90
23669;DHT22;12011;47.422;15.018;2023-03-14T07:33:48;5.90;99.90
23669;DHT22;12011;47.422;15.018;2023-03-14T07:36:19;5.90;99.90
23669;DHT22;12011;47.422;15.018;2023-03-14T07:38:48;5.90;99.90
23669;DHT22;12011;47.422;15.018;2023-03-14T07:41:27;6.00;99.90
23669;DHT22;12011;47.422;15.018;2023-03-14T07:44:18;5.90;99.90
23669;DHT22;12011;47.422;15.018;2023-03-14T07:46:47;5.90;99.90
23669;DHT22;12011;47.422;15.018;2023-03-14T07:49:17;6.10;99.90
23669;DHT22;12011;47.422;15.018;2023-03-14T07:51:48;5.40;99.90
23669;DHT22;12011;47.422;15.018;2023-03-14T07:54:17;6.00;99.90
23669;DHT22;12011;47.422;15.018;2023-03-14T07:56:47;5.40;99.90
23669;DHT22;12011;47.422;15.018;2023-03-14T07:59:19;5.70;99.90
23669;DHT22;12011;47.422;15.018;2023-03-14T08:01:50;5.80;99.90
23669;DHT22;12011;47.422;15.018;2023-03-14T08:04:20;5.80;99.90
23669;DHT22;12011;47.422;15.018;2023-03-14T08:06:49;5.80;99.90
23669;DHT22;12011;47.422;15.018;2023-03-14T08:09:20;5.90;99.90
23669;DHT22;12011;47.422;15.018;2023-03-14T08:11:49;5.80;99.90
23669;DHT22;12011;47.422;15.018;2023-03-14T08:14:21;5.80;99.90
23669;DHT22;12011;47.422;15.018;2023-03-14T08:16:52;5.80;99.90
23669;DHT22;12011;47.422;15.018;2023-03-14T08:19:21;6.10;99.90
23669;DHT22;12011;47.422;15.018;2023-03-14T08:21:51;5.90;99.90
23669;DHT22;12011;47.422;15.018;2023-03-14T08:24:20;5.90;99.90
23669;DHT22;12011;47.422;15.018;2023-03-14T08:26:50;6.30;99.90
23669;DHT22;12011;47.422;15.018;2023-03-14T08:29:22;5.90;99.90
23669;DHT22;12011;47.422;15.018;2023-03-14T08:31:51;6.40;99.90
23669;DHT22;12011;47.422;15.018;2023-03-14T08:34:21;6.30;99.90
23669;DHT22;12011;47.422;15.018;2023-03-14T08:36:53;6.90;99.90
23669;DHT22;12011;47.422;15.018;2023-03-14T08:39:23;7.10;99.90
23669;DHT22;12011;47.422;15.018;2023-03-14T08:41:53;7.30;99.90
23669;DHT22;12011;47.422;15.018;2023-03-14T08:44:25;6.70;99.90
23669;DHT22;12011;47.422;15.018;2023-03-14T08:46:55;7.40;99.90
23669;DHT22;12011;47.422;15.018;2023-03-14T08:49:24;8.10;99.90
23669;DHT22;12011;47.422;15.018;2023-03-14T08:51:54;7.70;99.90
23669;DHT22;12011;47.422;15.018;2023-03-14T08:54:23;7.00;99.90
23669;DHT22;12011;47.422;15.018;2023-03-14T08:56:52;8.30;99.90
23669;DHT22;12011;47.422;15.018;2023-03-14T08:59:25;8.10;99.90
23669;DHT22;12011;47.422;15.018;2023-03-14T09:01:54;7.50;99.90
23669;DHT22;12011;47.422;15.018;2023-03-14T09:04:24;7.60;99.90
23669;DHT22;12011;47.422;15.018;2023-03-14T09:06:53;7.30;99.90
23669;DHT22;12011;47.422;15.018;2023-03-14T09:09:24;7.20;99.90
23669;DHT22;12011;47.422;15.018;2023-03-14T09:11:53;6.80;99.90
23669;DHT22;12011;47.422;15.018;2023-03-14T09:14:25;7.10;99.90
23669;DHT22;12011;47.422;15.018;2023-03-14T09:16:55;7.00;99.90
23669;DHT22;12011;47.422;15.018;2023-03-14T09:19:24;7.80;99.90
23669;DHT22;12011;47.422;15.018;2023-03-14T09:21:54;6.90;99.90
23669;DHT22;12011;47.422;15.018;2023-03-14T09:24:24;6.40;99.90
23669;DHT22;12011;47.422;15.018;2023-03-14T09:26:54;7.30;99.90
23669;DHT22;12011;47.422;15.018;2023-03-14T09:29:27;6.90;99.90
23669;DHT22;12011;47.422;15.018;2023-03-14T09:31:58;7.00;99.90
23669;DHT22;12011;47.422;15.018;2023-03-14T09:34:27;6.60;99.90
23669;DHT22;12011;47.422;15.018;2023-03-14T09:36:57;6.60;99.90
23669;DHT22;12011;47.422;15.018;2023-03-14T09:39:26;6.40;99.90
23669;DHT22;12011;47.422;15.018;2023-03-14T09:41:58;7.70;99.90
23669;DHT22;12011;47.422;15.018;2023-03-14T09:44:37;6.50;99.90
23669;DHT22;12011;47.422;15.018;2023-03-14T09:47:19;7.60;99.90
23669;DHT22;12011;47.422;15.018;2023-03-14T09:49:48;7.10;99.90
23669;DHT22;12011;47.422;15.018;2023-03-14T09:52:23;7.00;99.90
23669;DHT22;12011;47.422;15.018;2023-03-14T09:55:01;6.90;99.90
23669;DHT22;12011;47.422;15.018;2023-03-14T09:57:34;7.00;99.90
23669;DHT22;12011;47.422;15.018;2023-03-14T10:00:18;6.40;99.90
23669;DHT22;12011;47.422;15.018;2023-03-14T10:02:52;6.80;99.90
23669;DHT22;12011;47.422;15.018;2023-03-14T10:05:25;6.40;99.90
23669;DHT22;12011;47.422;15.018;2023-03-14T10:07:55;5.40;99.90
23669;DHT22;12011;47.422;15.018;2023-03-14T10:10:26;7.70;99.90
23669;DHT22;12011;47.422;15.018;2023-03-14T10:12:57;7.10;99.90
23669;DHT22;12011;47.422;15.018;2023-03-14T10:15:33;7.70;99.90
23669;DHT22;12011;47.422;15.018;2023-03-14T10:18:10;6.60;99.90
23669;DHT22;12011;47.422;15.018;2023-03-14T10:20:43;7.20;99.90
23669;DHT22;12011;47.422;15.018;2023-03-14T10:23:26;8.10;99.90
23669;DHT22;12011;47.422;15.018;2023-03-14T10:26:03;7.70;99.90
23669;DHT22;12011;47.422;15.018;2023-03-14T10:28:39;7.60;99.90
23669;DHT22;12011;47.422;15.018;2023-03-14T10:31:14;7.90;99.90
23669;DHT22;12011;47.422;15.018;2023-03-14T10:33:58;7.20;99.90
23669;DHT22;12011;47.422;15.018;2023-03-14T10:36:29;7.40;99.90
23669;DHT22;12011;47.422;15.018;2023-03-14T10:39:24;8.30;99.90
23669;DHT22;12011;47.422;15.018;2023-03-14T10:42:04;8.70;99.90
23669;DHT22;12011;47.422;15.018;2023-03-14T10:44:37;8.60;99.90
23669;DHT22;12011;47.422;15.018;2023-03-14T10:47:18;9.50;99.90
23669;DHT22;12011;47.422;15.018;2023-03-14T10:49:48;9.80;99.90
23669;DHT22;12011;47.422;15.018;2023-03-14T10:52:21;10.00;98.30
23669;DHT22;12011;47.422;15.018;2023-03-14T10:54:56;9.90;97.40
23669;DHT22;12011;47.422;15.018;2023-03-14T10:57:27;9.90;96.50
23669;DHT22;12011;47.422;15.018;2023-03-14T10:59:57;9.80;96.20
23669;DHT22;12011;47.422;15.018;2023-03-14T11:02:53;10.00;98.70
23669;DHT22;12011;47.422;15.018;2023-03-14T11:05:36;11.00;94.10
23669;DHT22;12011;47.422;15.018;2023-03-14T11:08:12;11.30;94.30
23669;DHT22;12011;47.422;15.018;2023-03-14T11:10:50;11.20;93.00
23669;DHT22;12011;47.422;15.018;2023-03-14T11:13:27;11.90;90.80
23669;DHT22;12011;47.422;15.018;2023-03-14T11:16:08;11.40;86.00
23669;DHT22;12011;47.422;15.018;2023-03-14T11:19:08;12.00;88.70
23669;DHT22;12011;47.422;15.018;2023-03-14T11:22:00;11.50;83.60
23669;DHT22;12011;47.422;15.018;2023-03-14T11:24:47;12.30;81.40
23669;DHT22;12011;47.422;15.018;2023-03-14T11:27:23;12.40;82.40
23669;DHT22;12011;47.422;15.018;2023-03-14T11:30:02;11.80;78.00
23669;DHT22;12011;47.422;15.018;2023-03-14T11:32:43;12.00;77.70
23669;DHT22;12011;47.422;15.018;2023-03-14T11:35:24;11.50;77.90
23669;DHT22;12011;47.422;15.018;2023-03-14T11:38:18;12.40;74.40
23669;DHT22;12011;47.422;15.018;2023-03-14T11:40:55;12.10;72.90
23669;DHT22;12011;47.422;15.018;2023-03-14T11:43:29;13.00;68.00
23669;DHT22;12011;47.422;15.018;2023-03-14T11:46:10;13.00;64.20
23669;DHT22;12011;47.422;15.018;2023-03-14T11:48:49;13.80;65.50
23669;DHT22;12011;47.422;15.018;2023-03-14T11:51:32;13.70;59.60
23669;DHT22;12011;47.422;15.018;2023-03-14T11:54:14;13.90;58.40
23669;DHT22;12011;47.422;15.018;2023-03-14T11:56:50;13.60;56.00
23669;DHT22;12011;47.422;15.018;2023-03-14T11:59:27;15.80;51.60
23669;DHT22;12011;47.422;15.018;2023-03-14T12:02:04;15.80;50.20
23669;DHT22;12011;47.422;15.018;2023-03-14T12:04:48;15.80;47.90
23669;DHT22;12011;47.422;15.018;2023-03-14T12:07:37;14.70;49.10
23669;DHT22;12011;47.422;15.018;2023-03-14T12:10:15;14.30;49.10
23669;DHT22;12011;47.422;15.018;2023-03-14T12:12:46;14.30;51.60
23669;DHT22;12011;47.422;15.018;2023-03-14T12:15:21;13.90;52.50
23669;DHT22;12011;47.422;15.018;2023-03-14T12:18:01;13.70;53.40
23669;DHT22;12011;47.422;15.018;2023-03-14T12:20:37;13.60;52.20
23669;DHT22;12011;47.422;15.018;2023-03-14T12:23:13;13.50;53.60
23669;DHT22;12011;47.422;15.018;2023-03-14T12:25:44;13.60;54.20
23669;DHT22;12011;47.422;15.018;2023-03-14T12:28:21;13.80;54.40
23669;DHT22;12011;47.422;15.018;2023-03-14T12:30:50;13.80;54.60
23669;DHT22;12011;47.422;15.018;2023-03-14T12:33:29;13.70;54.00
23669;DHT22;12011;47.422;15.018;2023-03-14T12:36:44;13.50;54.00
23669;DHT22;12011;47.422;15.018;2023-03-14T12:39:41;13.50;53.50
23669;DHT22;12011;47.422;15.018;2023-03-14T12:42:34;13.50;52.40
23669;DHT22;12011;47.422;15.018;2023-03-14T12:45:24;13.80;56.30
23669;DHT22;12011;47.422;15.018;2023-03-14T12:48:09;13.90;54.20
23669;DHT22;12011;47.422;15.018;2023-03-14T12:50:53;13.50;54.80
23669;DHT22;12011;47.422;15.018;2023-03-14T12:53:45;11.30;53.10
23669;DHT22;12011;47.422;15.018;2023-03-14T12:56:42;13.80;54.60
23669;DHT22;12011;47.422;15.018;2023-03-14T12:59:40;14.70;53.30
23669;DHT22;12011;47.422;15.018;2023-03-14T13:02:26;15.70;52.00
23669;DHT22;12011;47.422;15.018;2023-03-14T13:05:13;17.10;47.00
23669;DHT22;12011;47.422;15.018;2023-03-14T13:08:08;16.90;46.10
23669;DHT22;12011;47.422;15.018;2023-03-14T13:10:42;15.60;47.80
23669;DHT22;12011;47.422;15.018;2023-03-14T13:13:21;14.80;50.80
23669;DHT22;12011;47.422;15.018;2023-03-14T13:15:56;13.40;56.30
23669;DHT22;12011;47.422;15.018;2023-03-14T13:18:35;12.20;61.10
23669;DHT22;12011;47.422;15.018;2023-03-14T13:21:12;12.10;67.90
23669;DHT22;12011;47.422;15.018;2023-03-14T13:23:57;11.80;70.00
23669;DHT22;12011;47.422;15.018;2023-03-14T13:26:35;10.80;74.40
23669;DHT22;12011;47.422;15.018;2023-03-14T13:29:22;10.70;76.80
23669;DHT22;12011;47.422;15.018;2023-03-14T13:31:55;10.90;76.00
23669;DHT22;12011;47.422;15.018;2023-03-14T13:34:26;10.00;79.90
23669;DHT22;12011;47.422;15.018;2023-03-14T13:36:57;9.90;79.70
23669;DHT22;12011;47.422;15.018;2023-03-14T13:39:28;10.40;80.40
23669;DHT22;12011;47.422;15.018;2023-03-14T13:42:00;9.80;79.20
23669;DHT22;12011;47.422;15.018;2023-03-14T13:44:37;9.90;85.10
23669;DHT22;12011;47.422;15.018;2023-03-14T13:47:15;9.60;83.30
23669;DHT22;12011;47.422;15.018;2023-03-14T13:49:48;9.90;81.40
23669;DHT22;12011;47.422;15.018;2023-03-14T13:52:34;9.60;81.30
23669;DHT22;12011;47.422;15.018;2023-03-14T13:55:13;9.60;86.00
23669;DHT22;12011;47.422;15.018;2023-03-14T13:57:46;9.60;90.30
23669;DHT22;12011;47.422;15.018;2023-03-14T14:00:25;9.20;90.50
23669;DHT22;12011;47.422;15.018;2023-03-14T14:02:58;8.80;87.40
23669;DHT22;12011;47.422;15.018;2023-03-14T14:05:29;9.40;92.90
23669;DHT22;12011;47.422;15.018;2023-03-14T14:08:03;8.70;91.00
23669;DHT22;12011;47.422;15.018;2023-03-14T14:10:37;9.20;91.70
23669;DHT22;12011;47.422;15.018;2023-03-14T14:13:14;9.60;89.20
23669;DHT22;12011;47.422;15.018;2023-03-14T14:15:52;8.50;91.20
23669;DHT22;12011;47.422;15.018;2023-03-14T14:18:26;9.00;94.20
23669;DHT22;12011;47.422;15.018;2023-03-14T14:20:57;8.90;96.40
23669;DHT22;12011;47.422;15.018;2023-03-14T14:23:29;8.30;96.70
23669;DHT22;12011;47.422;15.018;2023-03-14T14:26:00;8.40;98.40
23669;DHT22;12011;47.422;15.018;2023-03-14T14:28:31;8.10;99.90
23669;DHT22;12011;47.422;15.018;2023-03-14T14:31:18;8.30;99.90
23669;DHT22;12011;47.422;15.018;2023-03-14T14:33:56;9.20;99.90
23669;DHT22;12011;47.422;15.018;2023-03-14T14:36:31;9.30;99.90
23669;DHT22;12011;47.422;15.018;2023-03-14T14:39:05;8.80;99.90
23669;DHT22;12011;47.422;15.018;2023-03-14T14:41:41;9.20;99.90
23669;DHT22;12011;47.422;15.018;2023-03-14T14:44:13;8.80;99.90
23669;DHT22;12011;47.422;15.018;2023-03-14T14:46:49;9.00;99.90
23669;DHT22;12011;47.422;15.018;2023-03-14T14:49:19;8.80;99.90
23669;DHT22;12011;47.422;15.018;2023-03-14T14:51:51;8.20;99.90
23669;DHT22;12011;47.422;15.018;2023-03-14T14:54:34;8.20;99.90
23669;DHT22;12011;47.422;15.018;2023-03-14T14:57:12;8.70;99.90
23669;DHT22;12011;47.422;15.018;2023-03-14T14:59:49;8.40;99.90
23669;DHT22;12011;47.422;15.018;2023-03-14T15:02:37;8.30;99.90
23669;DHT22;12011;47.422;15.018;2023-03-14T15:05:13;7.90;99.90
23669;DHT22;12011;47.422;15.018;2023-03-14T15:07:43;8.10;99.90
23669;DHT22;12011;47.422;15.018;2023-03-14T15:10:14;8.40;99.90
23669;DHT22;12011;47.422;15.018;2023-03-14T15:12:45;8.40;99.90
23669;DHT22;12011;47.422;15.018;2023-03-14T15:15:17;7.70;99.90
23669;DHT22;12011;47.422;15.018;2023-03-14T15:17:49;8.50;99.90
23669;DHT22;12011;47.422;15.018;2023-03-14T15:20:19;8.40;99.90
23669;DHT22;12011;47.422;15.018;2023-03-14T15:22:50;7.20;99.90
23669;DHT22;12011;47.422;15.018;2023-03-14T15:25:19;7.30;99.90
23669;DHT22;12011;47.422;15.018;2023-03-14T15:27:49;8.60;99.90
23669;DHT22;12011;47.422;15.018;2023-03-14T15:30:18;7.60;99.90
23669;DHT22;12011;47.422;15.018;2023-03-14T15:32:51;7.50;99.90
23669;DHT22;12011;47.422;15.018;2023-03-14T15:35:20;7.50;99.90
23669;DHT22;12011;47.422;15.018;2023-03-14T15:37:50;7.90;99.90
23669;DHT22;12011;47.422;15.018;2023-03-14T15:40:24;6.80;99.90
23669;DHT22;12011;47.422;15.018;2023-03-14T15:42:54;6.70;99.90
23669;DHT22;12011;47.422;15.018;2023-03-14T15:45:23;7.50;99.90
23669;DHT22;12011;47.422;15.018;2023-03-14T15:47:55;7.40;99.90
23669;DHT22;12011;47.422;15.018;2023-03-14T15:50:25;7.80;99.90
23669;DHT22;12011;47.422;15.018;2023-03-14T15:52:55;6.70;99.90
23669;DHT22;12011;47.422;15.018;2023-03-14T15:55:24;6.70;99.90
23669;DHT22;12011;47.422;15.018;2023-03-14T15:57:54;6.50;99.90
23669;DHT22;12011;47.422;15.018;2023-03-14T16:00:25;7.30;99.90
23669;DHT22;12011;47.422;15.018;2023-03-14T16:02:57;6.50;99.90
23669;DHT22;12011;47.422;15.018;2023-03-14T16:05:27;6.60;99.90
23669;DHT22;12011;47.422;15.018;2023-03-14T16:07:56;7.30;99.90
23669;DHT22;12011;47.422;15.018;2023-03-14T16:10:27;6.60;99.90
23669;DHT22;12011;47.422;15.018;2023-03-14T16:12:57;7.40;99.90
23669;DHT22;12011;47.422;15.018;2023-03-14T16:15:27;7.50;99.90
23669;DHT22;12011;47.422;15.018;2023-03-14T16:17:59;7.70;99.90
23669;DHT22;12011;47.422;15.018;2023-03-14T16:20:29;7.50;99.90
23669;DHT22;12011;47.422;15.018;2023-03-14T16:22:59;7.70;99.90
23669;DHT22;12011;47.422;15.018;2023-03-14T16:25:29;7.10;99.90